sensor_id;sensor_type;location;lat;lon;timestamp;pressure;altitude;pressure_sealevel;temperature;humidity
30708;BME280;17458;48.958;8.284;2024-02-23T00:02:04;98367.78;;;10.87;59.18
30708;BME280;17458;48.958;8.284;2024-02-23T00:04:48;98370.75;;;10.55;59.33
30708;BME280;17458;48.958;8.284;2024-02-23T00:07:32;98385.19;;;10.71;59.12
30708;BME280;17458;48.958;8.284;2024-02-23T00:10:16;98390.03;;;10.45;59.42
30708;BME280;17458;48.958;8.284;2024-02-23T00:13:01;98370.75;;;10.55;59.59
30708;BME280;17458;48.958;8.284;2024-02-23T00:15:45;98391.34;;;10.69;58.87
30708;BME280;17458;48.958;8.284;2024-02-23T00:18:29;98390.03;;;10.93;58.73
30708;BME280;17458;48.958;8.284;2024-02-23T00:21:13;98404.16;;;10.44;59.20
30708;BME280;17458;48.958;8.284;2024-02-23T00:23:57;98409.25;;;10.32;59.20
30708;BME280;17458;48.958;8.284;2024-02-23T00:26:42;98413.53;;;10.72;59.20
30708;BME280;17458;48.958;8.284;2024-02-23T00:29:32;98414.00;;;10.50;59.24
30708;BME280;17458;48.958;8.284;2024-02-23T00:32:20;98418.88;;;10.28;59.56
30708;BME280;17458;48.958;8.284;2024-02-23T00:35:04;98411.41;;;10.09;59.13
30708;BME280;17458;48.958;8.284;2024-02-23T00:37:49;98413.97;;;10.48;58.70
30708;BME280;17458;48.958;8.284;2024-02-23T00:40:33;98411.50;;;10.57;58.75
30708;BME280;17458;48.958;8.284;2024-02-23T00:43:19;98401.06;;;10.67;58.55
30708;BME280;17458;48.958;8.284;2024-02-23T00:46:03;98413.75;;;10.36;59.11
30708;BME280;17458;48.958;8.284;2024-02-23T00:48:48;98432.03;;;10.22;58.83
30708;BME280;17458;48.958;8.284;2024-02-23T00:51:32;98423.69;;;10.48;58.57
30708;BME280;17458;48.958;8.284;2024-02-23T00:54:16;98436.47;;;10.22;58.47
30708;BME280;17458;48.958;8.284;2024-02-23T00:57:00;98453.63;;;10.00;58.67
30708;BME280;17458;48.958;8.284;2024-02-23T00:59:44;98449.81;;;10.28;58.78
30708;BME280;17458;48.958;8.284;2024-02-23T01:02:28;98443.75;;;10.34;57.80
30708;BME280;17458;48.958;8.284;2024-02-23T01:05:13;98446.16;;;10.21;59.00
30708;BME280;17458;48.958;8.284;2024-02-23T01:07:56;98457.81;;;9.89;59.64
30708;BME280;17458;48.958;8.284;2024-02-23T01:10:40;98439.66;;;10.07;58.12
30708;BME280;17458;48.958;8.284;2024-02-23T01:13:25;98441.22;;;9.99;58.46
30708;BME280;17458;48.958;8.284;2024-02-23T01:16:42;98446.56;;;10.41;57.56
30708;BME280;17458;48.958;8.284;2024-02-23T01:19:26;98459.56;;;10.29;57.61
30708;BME280;17458;48.958;8.284;2024-02-23T01:22:11;98468.97;;;10.15;58.52
30708;BME280;17458;48.958;8.284;2024-02-23T01:24:55;98475.84;;;10.05;58.39
30708;BME280;17458;48.958;8.284;2024-02-23T01:27:43;98478.34;;;10.40;57.80
30708;BME280;17458;48.958;8.284;2024-02-23T01:30:38;98476.69;;;10.04;58.66
30708;BME280;17458;48.958;8.284;2024-02-23T01:33:22;98476.50;;;9.96;58.54
30708;BME280;17458;48.958;8.284;2024-02-23T01:36:10;98477.97;;;10.20;58.38
30708;BME280;17458;48.958;8.284;2024-02-23T01:39:20;98481.25;;;10.10;57.94
30708;BME280;17458;48.958;8.284;2024-02-23T01:42:18;98492.75;;;10.10;57.74
30708;BME280;17458;48.958;8.284;2024-02-23T01:45:28;98493.34;;;9.99;58.31
30708;BME280;17458;48.958;8.284;2024-02-23T01:49:10;98495.94;;;9.94;58.50
30708;BME280;17458;48.958;8.284;2024-02-23T01:52:03;98510.13;;;9.96;57.81
30708;BME280;17458;48.958;8.284;2024-02-23T01:55:09;98494.81;;;10.22;57.29
30708;BME280;17458;48.958;8.284;2024-02-23T01:58:24;98505.19;;;9.75;57.62
30708;BME280;17458;48.958;8.284;2024-02-23T02:01:14;98503.31;;;10.09;57.48
30708;BME280;17458;48.958;8.284;2024-02-23T02:04:26;98500.38;;;9.96;56.75
30708;BME280;17458;48.958;8.284;2024-02-23T02:07:15;98507.34;;;9.91;57.30
30708;BME280;17458;48.958;8.284;2024-02-23T02:09:59;98494.94;;;9.90;57.55
30708;BME280;17458;48.958;8.284;2024-02-23T02:12:51;98495.56;;;9.79;57.32
30708;BME280;17458;48.958;8.284;2024-02-23T02:15:39;98499.09;;;9.78;57.70
30708;BME280;17458;48.958;8.284;2024-02-23T02:18:47;98516.78;;;9.79;57.87
30708;BME280;17458;48.958;8.284;2024-02-23T02:21:47;98517.06;;;10.30;57.19
30708;BME280;17458;48.958;8.284;2024-02-23T02:24:31;98509.53;;;10.09;58.11
30708;BME280;17458;48.958;8.284;2024-02-23T02:27:15;98509.75;;;10.18;57.77
30708;BME280;17458;48.958;8.284;2024-02-23T02:30:00;98518.94;;;10.34;57.34
30708;BME280;17458;48.958;8.284;2024-02-23T02:32:44;98513.44;;;10.26;57.58
30708;BME280;17458;48.958;8.284;2024-02-23T02:35:28;98517.59;;;10.15;57.70
30708;BME280;17458;48.958;8.284;2024-02-23T02:38:12;98516.97;;;10.24;58.24
30708;BME280;17458;48.958;8.284;2024-02-23T02:40:57;98515.63;;;10.05;58.29
30708;BME280;17458;48.958;8.284;2024-02-23T02:43:43;98512.94;;;10.04;58.04
30708;BME280;17458;48.958;8.284;2024-02-23T02:46:27;98523.09;;;10.21;57.97
30708;BME280;17458;48.958;8.284;2024-02-23T02:49:11;98531.13;;;10.24;58.31
30708;BME280;17458;48.958;8.284;2024-02-23T02:51:55;98531.88;;;9.83;58.57
30708;BME280;17458;48.958;8.284;2024-02-23T02:54:39;98518.97;;;9.98;58.17
30708;BME280;17458;48.958;8.284;2024-02-23T02:57:23;98530.03;;;10.18;57.47
30708;BME280;17458;48.958;8.284;2024-02-23T03:00:10;98535.34;;;9.79;57.63
30708;BME280;17458;48.958;8.284;2024-02-23T03:02:54;98533.13;;;9.61;57.98
30708;BME280;17458;48.958;8.284;2024-02-23T03:05:37;98515.31;;;9.54;57.63
30708;BME280;17458;48.958;8.284;2024-02-23T03:08:22;98525.63;;;9.79;56.58
30708;BME280;17458;48.958;8.284;2024-02-23T03:11:06;98520.81;;;9.29;56.55
30708;BME280;17458;48.958;8.284;2024-02-23T03:13:51;98516.75;;;9.43;55.99
30708;BME280;17458;48.958;8.284;2024-02-23T03:16:34;98513.41;;;9.86;55.70
30708;BME280;17458;48.958;8.284;2024-02-23T03:19:20;98511.63;;;9.49;55.37
30708;BME280;17458;48.958;8.284;2024-02-23T03:22:06;98509.50;;;9.34;56.06
30708;BME280;17458;48.958;8.284;2024-02-23T03:24:50;98520.69;;;9.22;55.46
30708;BME280;17458;48.958;8.284;2024-02-23T03:27:36;98521.66;;;9.62;54.25
30708;BME280;17458;48.958;8.284;2024-02-23T03:30:20;98523.13;;;9.49;55.04
30708;BME280;17458;48.958;8.284;2024-02-23T03:33:04;98521.09;;;9.75;54.50
30708;BME280;17458;48.958;8.284;2024-02-23T03:35:48;98526.41;;;9.75;55.40
30708;BME280;17458;48.958;8.284;2024-02-23T03:38:32;98539.25;;;9.94;54.82
30708;BME280;17458;48.958;8.284;2024-02-23T03:41:18;98530.03;;;9.79;54.83
30708;BME280;17458;48.958;8.284;2024-02-23T03:44:02;98528.88;;;10.44;53.89
30708;BME280;17458;48.958;8.284;2024-02-23T03:46:46;98523.69;;;10.11;54.51
30708;BME280;17458;48.958;8.284;2024-02-23T03:49:30;98526.00;;;10.34;53.66
30708;BME280;17458;48.958;8.284;2024-02-23T03:52:14;98531.72;;;10.14;54.14
30708;BME280;17458;48.958;8.284;2024-02-23T03:54:58;98532.31;;;10.01;54.33
30708;BME280;17458;48.958;8.284;2024-02-23T03:57:42;98545.25;;;10.23;54.09
30708;BME280;17458;48.958;8.284;2024-02-23T04:00:26;98542.00;;;10.37;53.51
30708;BME280;17458;48.958;8.284;2024-02-23T04:03:10;98547.78;;;10.19;53.94
30708;BME280;17458;48.958;8.284;2024-02-23T04:05:54;98546.81;;;10.56;53.55
30708;BME280;17458;48.958;8.284;2024-02-23T04:08:38;98556.50;;;10.52;53.11
30708;BME280;17458;48.958;8.284;2024-02-23T04:11:24;98567.19;;;10.57;53.85
30708;BME280;17458;48.958;8.284;2024-02-23T04:14:09;98565.50;;;10.20;53.76
30708;BME280;17458;48.958;8.284;2024-02-23T04:16:53;98562.66;;;10.14;54.51
30708;BME280;17458;48.958;8.284;2024-02-23T04:19:37;98572.19;;;10.06;54.42
30708;BME280;17458;48.958;8.284;2024-02-23T04:22:21;98575.25;;;10.21;54.00
30708;BME280;17458;48.958;8.284;2024-02-23T04:25:05;98570.97;;;10.27;53.24
30708;BME280;17458;48.958;8.284;2024-02-23T04:27:50;98571.34;;;10.44;53.13
30708;BME280;17458;48.958;8.284;2024-02-23T04:30:34;98570.47;;;10.45;52.69
30708;BME280;17458;48.958;8.284;2024-02-23T04:33:18;98567.84;;;10.08;52.70
30708;BME280;17458;48.958;8.284;2024-02-23T04:36:03;98557.84;;;10.34;52.97
30708;BME280;17458;48.958;8.284;2024-02-23T04:38:48;98551.69;;;10.35;52.45
30708;BME280;17458;48.958;8.284;2024-02-23T04:41:32;98548.78;;;10.24;52.54
30708;BME280;17458;48.958;8.284;2024-02-23T04:44:16;98551.16;;;9.76;53.31
30708;BME280;17458;48.958;8.284;2024-02-23T04:47:01;98543.88;;;9.67;53.51
30708;BME280;17458;48.958;8.284;2024-02-23T04:49:45;98544.25;;;9.84;53.51
30708;BME280;17458;48.958;8.284;2024-02-23T04:52:29;98553.88;;;9.79;53.16
30708;BME280;17458;48.958;8.284;2024-02-23T04:55:13;98543.44;;;10.22;52.88
30708;BME280;17458;48.958;8.284;2024-02-23T04:57:58;98553.13;;;10.20;52.61
30708;BME280;17458;48.958;8.284;2024-02-23T05:00:42;98543.13;;;10.48;51.52
30708;BME280;17458;48.958;8.284;2024-02-23T05:03:26;98544.69;;;10.40;51.98
30708;BME280;17458;48.958;8.284;2024-02-23T05:06:10;98552.63;;;10.01;52.89
30708;BME280;17458;48.958;8.284;2024-02-23T05:08:54;98562.50;;;10.06;52.50
30708;BME280;17458;48.958;8.284;2024-02-23T05:11:38;98561.81;;;10.54;51.30
30708;BME280;17458;48.958;8.284;2024-02-23T05:14:23;98557.16;;;10.05;52.78
30708;BME280;17458;48.958;8.284;2024-02-23T05:17:07;98544.50;;;9.93;53.32
30708;BME280;17458;48.958;8.284;2024-02-23T05:19:51;98547.09;;;9.55;54.16
30708;BME280;17458;48.958;8.284;2024-02-23T05:22:39;98544.19;;;9.79;53.65
30708;BME280;17458;48.958;8.284;2024-02-23T05:25:24;98551.16;;;9.76;53.89
30708;BME280;17458;48.958;8.284;2024-02-23T05:28:09;98548.88;;;10.28;52.31
30708;BME280;17458;48.958;8.284;2024-02-23T05:30:56;98550.50;;;9.86;53.68
30708;BME280;17458;48.958;8.284;2024-02-23T05:33:40;98548.34;;;9.68;53.99
30708;BME280;17458;48.958;8.284;2024-02-23T05:36:25;98551.19;;;9.43;54.38
30708;BME280;17458;48.958;8.284;2024-02-23T05:39:09;98561.00;;;9.45;53.50
30708;BME280;17458;48.958;8.284;2024-02-23T05:41:53;98562.31;;;9.28;54.46
30708;BME280;17458;48.958;8.284;2024-02-23T05:44:37;98560.72;;;9.02;54.34
30708;BME280;17458;48.958;8.284;2024-02-23T05:47:22;98566.84;;;9.01;54.33
30708;BME280;17458;48.958;8.284;2024-02-23T05:50:08;98564.22;;;9.01;54.04
30708;BME280;17458;48.958;8.284;2024-02-23T05:52:53;98565.81;;;9.27;53.50
30708;BME280;17458;48.958;8.284;2024-02-23T05:55:37;98564.47;;;9.10;54.37
30708;BME280;17458;48.958;8.284;2024-02-23T05:58:21;98561.00;;;9.12;53.77
30708;BME280;17458;48.958;8.284;2024-02-23T06:01:05;98564.00;;;8.93;54.40
30708;BME280;17458;48.958;8.284;2024-02-23T06:03:50;98560.94;;;8.78;54.64
30708;BME280;17458;48.958;8.284;2024-02-23T06:06:34;98565.38;;;8.79;54.46
30708;BME280;17458;48.958;8.284;2024-02-23T06:09:18;98563.22;;;9.63;73.88
30708;BME280;17458;48.958;8.284;2024-02-23T06:12:02;98551.06;;;10.09;52.77
30708;BME280;17458;48.958;8.284;2024-02-23T06:14:47;98555.25;;;9.29;53.89
30708;BME280;17458;48.958;8.284;2024-02-23T06:17:31;98564.47;;;8.78;55.05
30708;BME280;17458;48.958;8.284;2024-02-23T06:20:15;98566.66;;;8.93;55.91
30708;BME280;17458;48.958;8.284;2024-02-23T06:23:00;98565.47;;;8.82;55.51
30708;BME280;17458;48.958;8.284;2024-02-23T06:25:44;98560.22;;;9.16;55.62
30708;BME280;17458;48.958;8.284;2024-02-23T06:28:28;98561.59;;;8.71;56.38
30708;BME280;17458;48.958;8.284;2024-02-23T06:31:12;98561.09;;;9.15;56.04
30708;BME280;17458;48.958;8.284;2024-02-23T06:33:56;98566.22;;;9.09;56.52
30708;BME280;17458;48.958;8.284;2024-02-23T06:36:40;98568.13;;;9.15;56.91
30708;BME280;17458;48.958;8.284;2024-02-23T06:39:24;98567.09;;;9.08;56.78
30708;BME280;17458;48.958;8.284;2024-02-23T06:42:08;98571.75;;;9.18;57.47
30708;BME280;17458;48.958;8.284;2024-02-23T06:44:52;98564.44;;;8.77;58.90
30708;BME280;17458;48.958;8.284;2024-02-23T06:47:38;98564.19;;;8.68;59.48
30708;BME280;17458;48.958;8.284;2024-02-23T06:50:23;98556.16;;;8.96;58.55
30708;BME280;17458;48.958;8.284;2024-02-23T06:53:07;98563.34;;;9.02;58.25
30708;BME280;17458;48.958;8.284;2024-02-23T06:55:51;98568.66;;;9.02;58.92
30708;BME280;17458;48.958;8.284;2024-02-23T06:58:35;98566.31;;;8.81;58.68
30708;BME280;17458;48.958;8.284;2024-02-23T07:01:20;98552.06;;;9.07;57.34
30708;BME280;17458;48.958;8.284;2024-02-23T07:04:04;98560.22;;;8.83;57.94
30708;BME280;17458;48.958;8.284;2024-02-23T07:06:48;98561.13;;;8.84;58.57
30708;BME280;17458;48.958;8.284;2024-02-23T07:09:32;98561.50;;;8.98;58.31
30708;BME280;17458;48.958;8.284;2024-02-23T07:12:16;98563.88;;;8.88;57.64
30708;BME280;17458;48.958;8.284;2024-02-23T07:15:00;98564.31;;;9.04;57.39
30708;BME280;17458;48.958;8.284;2024-02-23T07:17:45;98571.91;;;8.92;57.67
30708;BME280;17458;48.958;8.284;2024-02-23T07:20:29;98576.56;;;9.00;57.55
30708;BME280;17458;48.958;8.284;2024-02-23T07:23:13;98575.53;;;8.95;57.52
30708;BME280;17458;48.958;8.284;2024-02-23T07:25:57;98571.19;;;8.97;57.22
30708;BME280;17458;48.958;8.284;2024-02-23T07:28:41;98556.19;;;8.66;58.16
30708;BME280;17458;48.958;8.284;2024-02-23T07:31:25;98566.44;;;8.85;58.18
30708;BME280;17458;48.958;8.284;2024-02-23T07:34:08;98568.50;;;8.96;57.24
30708;BME280;17458;48.958;8.284;2024-02-23T07:36:53;98570.50;;;9.04;57.68
30708;BME280;17458;48.958;8.284;2024-02-23T07:39:37;98568.84;;;9.08;57.24
30708;BME280;17458;48.958;8.284;2024-02-23T07:42:22;98574.06;;;9.38;57.01
30708;BME280;17458;48.958;8.284;2024-02-23T07:45:07;98577.88;;;9.49;57.03
30708;BME280;17458;48.958;8.284;2024-02-23T07:47:51;98577.69;;;9.77;56.30
30708;BME280;17458;48.958;8.284;2024-02-23T07:50:35;98579.41;;;10.13;55.12
30708;BME280;17458;48.958;8.284;2024-02-23T07:53:19;98579.53;;;10.17;55.11
30708;BME280;17458;48.958;8.284;2024-02-23T07:56:03;98581.84;;;10.02;55.31
30708;BME280;17458;48.958;8.284;2024-02-23T07:58:48;98583.88;;;10.53;53.96
30708;BME280;17458;48.958;8.284;2024-02-23T08:01:33;98587.38;;;10.13;54.60
30708;BME280;17458;48.958;8.284;2024-02-23T08:04:18;98577.16;;;10.28;53.93
30708;BME280;17458;48.958;8.284;2024-02-23T08:07:02;98584.91;;;10.19;53.26
30708;BME280;17458;48.958;8.284;2024-02-23T08:09:46;98572.09;;;10.79;51.74
30708;BME280;17458;48.958;8.284;2024-02-23T08:12:30;98580.19;;;10.87;52.09
30708;BME280;17458;48.958;8.284;2024-02-23T08:15:14;98595.06;;;11.21;51.30
30708;BME280;17458;48.958;8.284;2024-02-23T08:17:59;98595.53;;;11.01;50.34
30708;BME280;17458;48.958;8.284;2024-02-23T08:20:43;98595.50;;;11.00;50.23
30708;BME280;17458;48.958;8.284;2024-02-23T08:23:27;98590.69;;;11.26;50.23
30708;BME280;17458;48.958;8.284;2024-02-23T08:26:11;98592.41;;;11.21;49.59
30708;BME280;17458;48.958;8.284;2024-02-23T08:28:55;98586.47;;;11.37;49.35
30708;BME280;17458;48.958;8.284;2024-02-23T08:31:40;98590.03;;;11.36;47.71
30708;BME280;17458;48.958;8.284;2024-02-23T08:34:24;98583.03;;;10.94;49.21
30708;BME280;17458;48.958;8.284;2024-02-23T08:37:08;98578.31;;;11.26;49.37
30708;BME280;17458;48.958;8.284;2024-02-23T08:39:53;98582.50;;;11.14;49.06
30708;BME280;17458;48.958;8.284;2024-02-23T08:42:37;98573.53;;;11.07;47.81
30708;BME280;17458;48.958;8.284;2024-02-23T08:45:21;98578.50;;;11.35;47.96
30708;BME280;17458;48.958;8.284;2024-02-23T08:48:05;98583.53;;;11.70;47.55
30708;BME280;17458;48.958;8.284;2024-02-23T08:50:51;98584.72;;;12.43;46.88
30708;BME280;17458;48.958;8.284;2024-02-23T08:53:35;98576.44;;;11.70;46.35
30708;BME280;17458;48.958;8.284;2024-02-23T08:56:18;98592.69;;;11.86;46.94
30708;BME280;17458;48.958;8.284;2024-02-23T08:59:02;98578.41;;;11.81;47.04
30708;BME280;17458;48.958;8.284;2024-02-23T09:01:47;98576.22;;;12.10;46.96
30708;BME280;17458;48.958;8.284;2024-02-23T09:04:31;98574.28;;;11.98;46.62
30708;BME280;17458;48.958;8.284;2024-02-23T09:07:15;98576.28;;;12.74;45.80
30708;BME280;17458;48.958;8.284;2024-02-23T09:09:59;98566.63;;;12.19;47.07
30708;BME280;17458;48.958;8.284;2024-02-23T09:12:43;98562.94;;;12.10;46.87
30708;BME280;17458;48.958;8.284;2024-02-23T09:15:27;98572.78;;;12.77;46.90
30708;BME280;17458;48.958;8.284;2024-02-23T09:18:11;98572.13;;;12.99;45.54
30708;BME280;17458;48.958;8.284;2024-02-23T09:20:56;98574.22;;;13.25;45.64
30708;BME280;17458;48.958;8.284;2024-02-23T09:23:39;98580.56;;;13.36;44.84
30708;BME280;17458;48.958;8.284;2024-02-23T09:26:23;98566.75;;;12.28;46.01
30708;BME280;17458;48.958;8.284;2024-02-23T09:29:07;98576.13;;;12.02;46.15
30708;BME280;17458;48.958;8.284;2024-02-23T09:31:51;98572.69;;;12.71;46.08
30708;BME280;17458;48.958;8.284;2024-02-23T09:34:36;98571.13;;;12.25;46.89
30708;BME280;17458;48.958;8.284;2024-02-23T09:37:20;98567.84;;;12.42;47.09
30708;BME280;17458;48.958;8.284;2024-02-23T09:40:04;98568.16;;;12.03;47.52
30708;BME280;17458;48.958;8.284;2024-02-23T09:42:56;98568.22;;;12.06;47.10
30708;BME280;17458;48.958;8.284;2024-02-23T09:45:44;98565.44;;;11.99;47.76
30708;BME280;17458;48.958;8.284;2024-02-23T09:48:29;98558.00;;;11.77;48.23
30708;BME280;17458;48.958;8.284;2024-02-23T09:51:17;98565.13;;;12.38;47.43
30708;BME280;17458;48.958;8.284;2024-02-23T09:54:01;98555.94;;;12.16;47.64
30708;BME280;17458;48.958;8.284;2024-02-23T09:56:46;98546.25;;;12.21;47.10
30708;BME280;17458;48.958;8.284;2024-02-23T09:59:31;98549.59;;;12.08;47.75
30708;BME280;17458;48.958;8.284;2024-02-23T10:02:16;98541.50;;;12.62;46.45
30708;BME280;17458;48.958;8.284;2024-02-23T10:05:01;98543.63;;;12.89;46.06
30708;BME280;17458;48.958;8.284;2024-02-23T10:07:46;98542.38;;;11.99;46.73
30708;BME280;17458;48.958;8.284;2024-02-23T10:10:33;98556.22;;;12.36;46.08
30708;BME280;17458;48.958;8.284;2024-02-23T10:13:18;98540.50;;;12.54;45.65
30708;BME280;17458;48.958;8.284;2024-02-23T10:16:05;98543.28;;;12.62;46.00
30708;BME280;17458;48.958;8.284;2024-02-23T10:18:49;98544.56;;;12.28;45.48
30708;BME280;17458;48.958;8.284;2024-02-23T10:21:33;98539.44;;;12.41;44.96
30708;BME280;17458;48.958;8.284;2024-02-23T10:24:18;98550.53;;;12.73;45.56
30708;BME280;17458;48.958;8.284;2024-02-23T10:27:02;98553.66;;;12.42;45.34
30708;BME280;17458;48.958;8.284;2024-02-23T10:29:49;98546.25;;;12.23;45.52
30708;BME280;17458;48.958;8.284;2024-02-23T10:32:34;98552.84;;;12.48;45.66
30708;BME280;17458;48.958;8.284;2024-02-23T10:35:20;98552.03;;;12.55;45.69
30708;BME280;17458;48.958;8.284;2024-02-23T10:38:07;98539.94;;;12.15;46.10
30708;BME280;17458;48.958;8.284;2024-02-23T10:40:55;98561.09;;;12.05;46.51
30708;BME280;17458;48.958;8.284;2024-02-23T10:43:50;98556.75;;;12.12;46.59
30708;BME280;17458;48.958;8.284;2024-02-23T10:46:35;98563.47;;;11.87;46.83
30708;BME280;17458;48.958;8.284;2024-02-23T10:49:20;98572.00;;;12.21;46.56
30708;BME280;17458;48.958;8.284;2024-02-23T10:52:09;98572.41;;;11.91;47.52
30708;BME280;17458;48.958;8.284;2024-02-23T10:54:57;98570.22;;;11.68;48.79
30708;BME280;17458;48.958;8.284;2024-02-23T10:57:43;98569.06;;;11.54;48.66
30708;BME280;17458;48.958;8.284;2024-02-23T11:00:28;98576.75;;;11.86;48.77
30708;BME280;17458;48.958;8.284;2024-02-23T11:03:13;98563.06;;;11.66;49.17
30708;BME280;17458;48.958;8.284;2024-02-23T11:05:59;98557.16;;;12.39;48.32
30708;BME280;17458;48.958;8.284;2024-02-23T11:08:43;98558.06;;;12.40;48.35
30708;BME280;17458;48.958;8.284;2024-02-23T11:11:27;98558.34;;;12.61;48.56
30708;BME280;17458;48.958;8.284;2024-02-23T11:14:11;98558.25;;;12.54;46.80
30708;BME280;17458;48.958;8.284;2024-02-23T11:16:55;98555.41;;;13.11;47.58
30708;BME280;17458;48.958;8.284;2024-02-23T11:19:39;98553.81;;;12.54;47.24
30708;BME280;17458;48.958;8.284;2024-02-23T11:22:30;98553.44;;;12.96;46.63
30708;BME280;17458;48.958;8.284;2024-02-23T11:25:16;98543.97;;;13.20;47.00
30708;BME280;17458;48.958;8.284;2024-02-23T11:28:01;98554.19;;;12.83;46.90
30708;BME280;17458;48.958;8.284;2024-02-23T11:30:45;98545.06;;;12.63;47.53
30708;BME280;17458;48.958;8.284;2024-02-23T11:33:34;98530.13;;;12.75;47.24
30708;BME280;17458;48.958;8.284;2024-02-23T11:36:28;98538.44;;;13.06;47.03
30708;BME280;17458;48.958;8.284;2024-02-23T11:39:13;98538.66;;;13.21;46.20
30708;BME280;17458;48.958;8.284;2024-02-23T11:41:57;98539.09;;;13.68;46.29
30708;BME280;17458;48.958;8.284;2024-02-23T11:44:42;98538.94;;;13.47;46.35
30708;BME280;17458;48.958;8.284;2024-02-23T11:47:26;98543.06;;;13.16;47.05
30708;BME280;17458;48.958;8.284;2024-02-23T11:50:11;98536.09;;;13.30;46.27
30708;BME280;17458;48.958;8.284;2024-02-23T11:52:55;98541.88;;;13.80;45.57
30708;BME280;17458;48.958;8.284;2024-02-23T11:55:39;98533.00;;;13.83;44.90
30708;BME280;17458;48.958;8.284;2024-02-23T11:58:23;98536.38;;;13.64;44.23
30708;BME280;17458;48.958;8.284;2024-02-23T12:01:08;98534.47;;;13.46;44.59
30708;BME280;17458;48.958;8.284;2024-02-23T12:03:52;98530.13;;;13.57;45.26
30708;BME280;17458;48.958;8.284;2024-02-23T12:06:36;98530.66;;;13.21;45.48
30708;BME280;17458;48.958;8.284;2024-02-23T12:09:20;98529.09;;;13.41;45.53
30708;BME280;17458;48.958;8.284;2024-02-23T12:12:04;98524.88;;;13.66;45.28
30708;BME280;17458;48.958;8.284;2024-02-23T12:14:48;98520.13;;;13.36;46.19
30708;BME280;17458;48.958;8.284;2024-02-23T12:17:36;98524.88;;;13.68;44.98
30708;BME280;17458;48.958;8.284;2024-02-23T12:20:21;98516.28;;;13.08;46.37
30708;BME280;17458;48.958;8.284;2024-02-23T12:23:05;98515.66;;;13.34;45.00
30708;BME280;17458;48.958;8.284;2024-02-23T12:25:56;98513.50;;;13.92;44.90
30708;BME280;17458;48.958;8.284;2024-02-23T12:28:41;98506.50;;;13.07;46.14
30708;BME280;17458;48.958;8.284;2024-02-23T12:31:31;98508.97;;;12.89;46.45
30708;BME280;17458;48.958;8.284;2024-02-23T12:34:15;98507.63;;;13.26;45.72
30708;BME280;17458;48.958;8.284;2024-02-23T12:37:02;98512.66;;;13.00;45.57
30708;BME280;17458;48.958;8.284;2024-02-23T12:39:47;98503.69;;;12.95;45.71
30708;BME280;17458;48.958;8.284;2024-02-23T12:42:32;98511.09;;;13.18;45.45
30708;BME280;17458;48.958;8.284;2024-02-23T12:45:16;98512.69;;;13.03;45.85
30708;BME280;17458;48.958;8.284;2024-02-23T12:48:00;98511.06;;;13.15;45.18
30708;BME280;17458;48.958;8.284;2024-02-23T12:50:44;98500.63;;;13.40;44.68
30708;BME280;17458;48.958;8.284;2024-02-23T12:53:36;98499.81;;;13.44;45.45
30708;BME280;17458;48.958;8.284;2024-02-23T12:56:21;98502.00;;;13.99;44.17
30708;BME280;17458;48.958;8.284;2024-02-23T12:59:05;98507.19;;;13.80;45.18
30708;BME280;17458;48.958;8.284;2024-02-23T13:01:49;98508.31;;;14.13;43.56
30708;BME280;17458;48.958;8.284;2024-02-23T13:04:33;98510.03;;;14.05;44.22
30708;BME280;17458;48.958;8.284;2024-02-23T13:07:17;98500.41;;;14.34;42.33
30708;BME280;17458;48.958;8.284;2024-02-23T13:10:05;98515.06;;;13.61;44.65
30708;BME280;17458;48.958;8.284;2024-02-23T13:12:50;98501.50;;;13.38;43.14
30708;BME280;17458;48.958;8.284;2024-02-23T13:15:34;98505.56;;;14.04;42.64
30708;BME280;17458;48.958;8.284;2024-02-23T13:18:21;98501.50;;;14.74;41.62
30708;BME280;17458;48.958;8.284;2024-02-23T13:21:05;98497.03;;;14.60;42.40
30708;BME280;17458;48.958;8.284;2024-02-23T13:23:49;98505.94;;;14.65;41.64
30708;BME280;17458;48.958;8.284;2024-02-23T13:26:33;98503.06;;;14.28;42.50
30708;BME280;17458;48.958;8.284;2024-02-23T13:29:17;98512.94;;;14.40;41.49
30708;BME280;17458;48.958;8.284;2024-02-23T13:32:02;98501.53;;;14.73;43.06
30708;BME280;17458;48.958;8.284;2024-02-23T13:34:46;98499.78;;;14.82;43.25
30708;BME280;17458;48.958;8.284;2024-02-23T13:37:30;98500.81;;;15.50;42.25
30708;BME280;17458;48.958;8.284;2024-02-23T13:40:14;98501.63;;;15.09;42.40
30708;BME280;17458;48.958;8.284;2024-02-23T13:42:58;98489.91;;;14.65;41.64
30708;BME280;17458;48.958;8.284;2024-02-23T13:45:50;98498.81;;;14.65;42.08
30708;BME280;17458;48.958;8.284;2024-02-23T13:48:38;98493.56;;;14.86;41.70
30708;BME280;17458;48.958;8.284;2024-02-23T13:51:22;98483.50;;;14.32;42.79
30708;BME280;17458;48.958;8.284;2024-02-23T13:54:06;98490.00;;;14.89;42.94
30708;BME280;17458;48.958;8.284;2024-02-23T13:56:50;98490.03;;;14.97;42.24
30708;BME280;17458;48.958;8.284;2024-02-23T13:59:34;98475.84;;;15.27;41.19
30708;BME280;17458;48.958;8.284;2024-02-23T14:02:25;98460.72;;;15.62;40.14
30708;BME280;17458;48.958;8.284;2024-02-23T14:05:10;98460.69;;;15.99;41.47
30708;BME280;17458;48.958;8.284;2024-02-23T14:07:55;98462.47;;;15.25;40.80
30708;BME280;17458;48.958;8.284;2024-02-23T14:10:39;98453.44;;;14.76;41.36
30708;BME280;17458;48.958;8.284;2024-02-23T14:13:24;98454.31;;;14.70;41.79
30708;BME280;17458;48.958;8.284;2024-02-23T14:16:08;98447.91;;;14.36;43.75
30708;BME280;17458;48.958;8.284;2024-02-23T14:18:52;98451.66;;;14.79;43.10
30708;BME280;17458;48.958;8.284;2024-02-23T14:21:36;98442.69;;;14.51;43.29
30708;BME280;17458;48.958;8.284;2024-02-23T14:24:20;98437.31;;;14.48;41.91
30708;BME280;17458;48.958;8.284;2024-02-23T14:27:04;98440.03;;;14.64;41.18
30708;BME280;17458;48.958;8.284;2024-02-23T14:29:48;98438.38;;;15.20;41.23
30708;BME280;17458;48.958;8.284;2024-02-23T14:32:33;98437.47;;;15.44;nan
30708;BME280;17458;48.958;8.284;2024-02-23T14:35:17;98433.03;;;15.36;41.32
30708;BME280;17458;48.958;8.284;2024-02-23T14:38:01;98430.03;;;14.14;41.98
30708;BME280;17458;48.958;8.284;2024-02-23T14:40:46;98432.56;;;13.94;42.42